Terminal Aerodrome Forecast
Issued by NWS Wilmington, OH

Home | Current Version | Previous Version | Text Only | Print | Product List | Glossary On
Versions: 1 2 3 4 5 6 7 8 9 10 11 12 13 14 15 16 17 18 19 20 21 22 23 24 25 26 27 28 29 30 31 32
000
FTUS41 KILN 292337
TAFDAY
TAF
KDAY 292337Z 3000/3024 35010KT P6SM SCT023 OVC220
     FM300600 06006KT P6SM OVC100
     FM301400 11009KT 4SM -SHRA BR OVC025
     FM301800 11012G21KT 2SM -SHRA BR OVC015=

USA.gov is the U.S. government's official web portal to all federal, state and local government web resources and services.